sensor_id;sensor_type;location;lat;lon;timestamp;pressure;altitude;pressure_sealevel;temperature;humidity
11440;BME280;5776;51.814;4.510;2023-02-11T00:00:07;103539.16;;;6.27;100.00
11440;BME280;5776;51.814;4.510;2023-02-11T00:02:33;103534.56;;;6.27;100.00
11440;BME280;5776;51.814;4.510;2023-02-11T00:05:00;103528.13;;;6.28;100.00
11440;BME280;5776;51.814;4.510;2023-02-11T00:07:30;103521.09;;;6.27;100.00
11440;BME280;5776;51.814;4.510;2023-02-11T00:09:56;103520.03;;;6.28;100.00
11440;BME280;5776;51.814;4.510;2023-02-11T00:12:22;103516.34;;;6.30;100.00
11440;BME280;5776;51.814;4.510;2023-02-11T00:14:48;103516.34;;;6.30;100.00
11440;BME280;5776;51.814;4.510;2023-02-11T00:17:15;103518.00;;;6.31;100.00
11440;BME280;5776;51.814;4.510;2023-02-11T00:19:41;103509.06;;;6.30;100.00
11440;BME280;5776;51.814;4.510;2023-02-11T00:22:07;103507.59;;;6.27;100.00
11440;BME280;5776;51.814;4.510;2023-02-11T00:24:34;103501.38;;;6.27;100.00
11440;BME280;5776;51.814;4.510;2023-02-11T00:27:01;103495.97;;;6.27;100.00
11440;BME280;5776;51.814;4.510;2023-02-11T00:29:27;103503.84;;;6.28;100.00
11440;BME280;5776;51.814;4.510;2023-02-11T00:31:52;103495.97;;;6.27;100.00
11440;BME280;5776;51.814;4.510;2023-02-11T00:34:18;103511.50;;;6.25;100.00
11440;BME280;5776;51.814;4.510;2023-02-11T00:36:44;103506.13;;;6.25;100.00
11440;BME280;5776;51.814;4.510;2023-02-11T00:39:12;103505.06;;;6.26;100.00
11440;BME280;5776;51.814;4.510;2023-02-11T00:41:38;103505.91;;;6.26;100.00
11440;BME280;5776;51.814;4.510;2023-02-11T00:44:04;103504.88;;;6.27;100.00
11440;BME280;5776;51.814;4.510;2023-02-11T00:46:30;103500.13;;;6.30;100.00
11440;BME280;5776;51.814;4.510;2023-02-11T00:48:56;103490.34;;;6.28;100.00
11440;BME280;5776;51.814;4.510;2023-02-11T00:51:26;103493.06;;;6.28;100.00
11440;BME280;5776;51.814;4.510;2023-02-11T00:53:53;103490.34;;;6.28;100.00
11440;BME280;5776;51.814;4.510;2023-02-11T00:56:20;103493.06;;;6.28;100.00
11440;BME280;5776;51.814;4.510;2023-02-11T00:58:47;103483.28;;;6.27;100.00
11440;BME280;5776;51.814;4.510;2023-02-11T01:01:13;103488.47;;;6.29;100.00
11440;BME280;5776;51.814;4.510;2023-02-11T01:03:39;103484.94;;;6.28;100.00
11440;BME280;5776;51.814;4.510;2023-02-11T01:06:07;103484.94;;;6.28;100.00
11440;BME280;5776;51.814;4.510;2023-02-11T01:08:33;103485.59;;;6.31;100.00
11440;BME280;5776;51.814;4.510;2023-02-11T01:11:01;103487.66;;;6.28;100.00
11440;BME280;5776;51.814;4.510;2023-02-11T01:13:30;103478.53;;;6.30;100.00
11440;BME280;5776;51.814;4.510;2023-02-11T01:15:56;103481.25;;;6.30;100.00
11440;BME280;5776;51.814;4.510;2023-02-11T01:18:23;103489.34;;;6.30;100.00
11440;BME280;5776;51.814;4.510;2023-02-11T01:20:50;103488.47;;;6.29;100.00
11440;BME280;5776;51.814;4.510;2023-02-11T01:23:17;103493.25;;;6.27;100.00
11440;BME280;5776;51.814;4.510;2023-02-11T01:25:43;103492.41;;;6.26;100.00
11440;BME280;5776;51.814;4.510;2023-02-11T01:28:23;103501.38;;;6.27;100.00
11440;BME280;5776;51.814;4.510;2023-02-11T01:30:50;103493.44;;;6.25;100.00
11440;BME280;5776;51.814;4.510;2023-02-11T01:33:16;103489.91;;;6.25;100.00
11440;BME280;5776;51.814;4.510;2023-02-11T01:35:43;103478.47;;;6.23;100.00
11440;BME280;5776;51.814;4.510;2023-02-11T01:38:23;103469.34;;;6.24;100.00
11440;BME280;5776;51.814;4.510;2023-02-11T01:40:52;103460.22;;;6.25;100.00
11440;BME280;5776;51.814;4.510;2023-02-11T01:43:18;103461.47;;;6.22;100.00
11440;BME280;5776;51.814;4.510;2023-02-11T01:48:34;103473.25;;;6.21;100.00
11440;BME280;5776;51.814;4.510;2023-02-11T01:51:06;103472.25;;;6.22;100.00
11440;BME280;5776;51.814;4.510;2023-02-11T01:53:34;103474.31;;;6.20;100.00
11440;BME280;5776;51.814;4.510;2023-02-11T01:56:20;103491.50;;;6.19;100.00
11440;BME280;5776;51.814;4.510;2023-02-11T01:59:11;103483.41;;;6.19;100.00
11440;BME280;5776;51.814;4.510;2023-02-11T02:01:39;103470.13;;;6.18;100.00
11440;BME280;5776;51.814;4.510;2023-02-11T02:04:09;103458.50;;;6.17;100.00
11440;BME280;5776;51.814;4.510;2023-02-11T02:06:48;103452.47;;;6.15;100.00
11440;BME280;5776;51.814;4.510;2023-02-11T02:09:28;103449.13;;;6.13;100.00
11440;BME280;5776;51.814;4.510;2023-02-11T02:11:54;103464.28;;;6.14;100.00
11440;BME280;5776;51.814;4.510;2023-02-11T02:14:20;103465.13;;;6.15;100.00
11440;BME280;5776;51.814;4.510;2023-02-11T02:16:47;103464.91;;;6.16;100.00
11440;BME280;5776;51.814;4.510;2023-02-11T02:35:50;103465.06;;;6.08;100.00
11440;BME280;5776;51.814;4.510;2023-02-11T02:38:31;103456.56;;;6.11;100.00
11440;BME280;5776;51.814;4.510;2023-02-11T02:41:08;103462.19;;;6.10;100.00
11440;BME280;5776;51.814;4.510;2023-02-11T02:43:40;103459.47;;;6.10;100.00
11440;BME280;5776;51.814;4.510;2023-02-11T02:46:14;103462.63;;;6.13;100.00
11440;BME280;5776;51.814;4.510;2023-02-11T02:48:41;103470.06;;;6.11;100.00
11440;BME280;5776;51.814;4.510;2023-02-11T02:56:45;103486.25;;;6.11;100.00
11440;BME280;5776;51.814;4.510;2023-02-11T02:59:46;103483.75;;;6.10;100.00
11440;BME280;5776;51.814;4.510;2023-02-11T03:04:56;103488.31;;;6.09;100.00
11440;BME280;5776;51.814;4.510;2023-02-11T03:07:45;103485.59;;;6.09;100.00
11440;BME280;5776;51.814;4.510;2023-02-11T03:10:27;103473.81;;;6.10;100.00
11440;BME280;5776;51.814;4.510;2023-02-11T03:12:55;103466.34;;;6.12;100.00
11440;BME280;5776;51.814;4.510;2023-02-11T03:15:23;103458.25;;;6.12;100.00
11440;BME280;5776;51.814;4.510;2023-02-11T03:17:53;103451.16;;;6.11;100.00
11440;BME280;5776;51.814;4.510;2023-02-11T03:20:22;103449.13;;;6.13;100.00
11440;BME280;5776;51.814;4.510;2023-02-11T03:22:57;103460.97;;;6.12;100.00
11440;BME280;5776;51.814;4.510;2023-02-11T03:25:29;103471.75;;;6.12;100.00
11440;BME280;5776;51.814;4.510;2023-02-11T03:30:48;103460.31;;;6.10;100.00
11440;BME280;5776;51.814;4.510;2023-02-11T03:33:32;103458.63;;;6.09;100.00
11440;BME280;5776;51.814;4.510;2023-02-11T03:36:07;103461.31;;;6.09;100.00
11440;BME280;5776;51.814;4.510;2023-02-11T03:38:43;103455.91;;;6.09;100.00
11440;BME280;5776;51.814;4.510;2023-02-11T03:41:12;103458.00;;;6.07;100.00
11440;BME280;5776;51.814;4.510;2023-02-11T03:43:43;103453.84;;;6.04;100.00
11440;BME280;5776;51.814;4.510;2023-02-11T03:46:12;103449.25;;;6.05;100.00
11440;BME280;5776;51.814;4.510;2023-02-11T03:48:45;103453.84;;;6.04;100.00
11440;BME280;5776;51.814;4.510;2023-02-11T03:51:13;103445.91;;;6.03;100.00
11440;BME280;5776;51.814;4.510;2023-02-11T03:53:42;103449.25;;;6.05;100.00
11440;BME280;5776;51.814;4.510;2023-02-11T03:56:12;103449.44;;;6.03;100.00
11440;BME280;5776;51.814;4.510;2023-02-11T03:58:40;103443.63;;;6.00;100.00
11440;BME280;5776;51.814;4.510;2023-02-11T04:01:06;103444.25;;;6.02;100.00
11440;BME280;5776;51.814;4.510;2023-02-11T04:03:34;103435.13;;;6.03;100.00
11440;BME280;5776;51.814;4.510;2023-02-11T04:06:00;103433.47;;;6.02;100.00
11440;BME280;5776;51.814;4.510;2023-02-11T04:08:26;103441.34;;;6.03;100.00
11440;BME280;5776;51.814;4.510;2023-02-11T04:10:52;103452.16;;;6.03;100.00
11440;BME280;5776;51.814;4.510;2023-02-11T04:13:18;103446.31;;;6.00;100.00
11440;BME280;5776;51.814;4.510;2023-02-11T04:15:44;103458.75;;;6.01;100.00
11440;BME280;5776;51.814;4.510;2023-02-11T04:18:10;103450.03;;;5.99;100.00
11440;BME280;5776;51.814;4.510;2023-02-11T04:20:36;103444.63;;;5.99;100.00
11440;BME280;5776;51.814;4.510;2023-02-11T04:23:02;103442.56;;;6.01;100.00
11440;BME280;5776;51.814;4.510;2023-02-11T04:25:28;103445.47;;;5.99;100.00
11440;BME280;5776;51.814;4.510;2023-02-11T04:27:53;103440.91;;;6.00;100.00
11440;BME280;5776;51.814;4.510;2023-02-11T04:30:19;103449.19;;;5.98;100.00
11440;BME280;5776;51.814;4.510;2023-02-11T04:32:45;103455.81;;;5.96;100.00
11440;BME280;5776;51.814;4.510;2023-02-11T04:35:11;103444.19;;;5.95;100.00
11440;BME280;5776;51.814;4.510;2023-02-11T04:37:37;103457.00;;;5.93;100.00
11440;BME280;5776;51.814;4.510;2023-02-11T04:40:03;103456.16;;;5.93;100.00
11440;BME280;5776;51.814;4.510;2023-02-11T04:42:29;103448.75;;;5.95;100.00
11440;BME280;5776;51.814;4.510;2023-02-11T04:44:55;103440.66;;;5.95;100.00
11440;BME280;5776;51.814;4.510;2023-02-11T04:47:21;103444.56;;;5.92;100.00
11440;BME280;5776;51.814;4.510;2023-02-11T04:49:47;103434.59;;;5.93;100.00
11440;BME280;5776;51.814;4.510;2023-02-11T04:52:13;103442.88;;;5.91;100.00
11440;BME280;5776;51.814;4.510;2023-02-11T04:54:39;103444.72;;;5.91;100.00
11440;BME280;5776;51.814;4.510;2023-02-11T04:57:05;103445.78;;;5.90;100.00
11440;BME280;5776;51.814;4.510;2023-02-11T04:59:31;103442.03;;;5.91;100.00
11440;BME280;5776;51.814;4.510;2023-02-11T05:01:57;103436.63;;;5.91;100.00
11440;BME280;5776;51.814;4.510;2023-02-11T05:04:23;103443.69;;;5.92;100.00
11440;BME280;5776;51.814;4.510;2023-02-11T05:06:49;103435.59;;;5.92;100.00
11440;BME280;5776;51.814;4.510;2023-02-11T05:09:14;103422.13;;;5.92;100.00
11440;BME280;5776;51.814;4.510;2023-02-11T05:11:42;103427.91;;;5.89;100.00
11440;BME280;5776;51.814;4.510;2023-02-11T05:14:08;103415.47;;;5.88;100.00
11440;BME280;5776;51.814;4.510;2023-02-11T05:16:34;103424.56;;;5.87;100.00
11440;BME280;5776;51.814;4.510;2023-02-11T05:19:00;103421.25;;;5.84;100.00
11440;BME280;5776;51.814;4.510;2023-02-11T05:21:26;103434.50;;;5.86;100.00
11440;BME280;5776;51.814;4.510;2023-02-11T05:23:52;103440.75;;;5.87;100.00
11440;BME280;5776;51.814;4.510;2023-02-11T05:26:18;103443.06;;;5.90;100.00
11440;BME280;5776;51.814;4.510;2023-02-11T05:28:44;103442.44;;;5.88;100.00
11440;BME280;5776;51.814;4.510;2023-02-11T05:31:10;103444.47;;;5.85;100.00
11440;BME280;5776;51.814;4.510;2023-02-11T05:33:36;103448.00;;;5.86;100.00
11440;BME280;5776;51.814;4.510;2023-02-11T05:36:09;103448.22;;;5.84;100.00
11440;BME280;5776;51.814;4.510;2023-02-11T05:38:36;103443.84;;;5.83;100.00
11440;BME280;5776;51.814;4.510;2023-02-11T05:41:02;103453.59;;;5.84;100.00
11440;BME280;5776;51.814;4.510;2023-02-11T05:43:29;103453.59;;;5.84;100.00
11440;BME280;5776;51.814;4.510;2023-02-11T05:45:55;103451.09;;;5.83;100.00
11440;BME280;5776;51.814;4.510;2023-02-11T05:48:21;103451.09;;;5.83;100.00
11440;BME280;5776;51.814;4.510;2023-02-11T05:50:47;103445.69;;;5.83;100.00
11440;BME280;5776;51.814;4.510;2023-02-11T05:53:13;103450.25;;;5.82;100.00
11440;BME280;5776;51.814;4.510;2023-02-11T05:55:39;103449.44;;;5.82;100.00
11440;BME280;5776;51.814;4.510;2023-02-11T05:58:06;103449.22;;;5.83;100.00
11440;BME280;5776;51.814;4.510;2023-02-11T06:00:33;103439.25;;;5.84;100.00
11440;BME280;5776;51.814;4.510;2023-02-11T06:02:59;103439.47;;;5.82;100.00
11440;BME280;5776;51.814;4.510;2023-02-11T06:05:25;103447.34;;;5.84;100.00
11440;BME280;5776;51.814;4.510;2023-02-11T06:07:51;103448.22;;;5.84;100.00
11440;BME280;5776;51.814;4.510;2023-02-11T06:10:17;103451.09;;;5.83;100.00
11440;BME280;5776;51.814;4.510;2023-02-11T06:12:43;103454.81;;;5.82;100.00
11440;BME280;5776;51.814;4.510;2023-02-11T06:15:09;103452.97;;;5.82;100.00
11440;BME280;5776;51.814;4.510;2023-02-11T06:17:35;103451.91;;;5.83;100.00
11440;BME280;5776;51.814;4.510;2023-02-11T06:20:03;103453.78;;;5.83;100.00
11440;BME280;5776;51.814;4.510;2023-02-11T06:22:30;103450.25;;;5.82;100.00
11440;BME280;5776;51.814;4.510;2023-02-11T06:24:56;103444.22;;;5.80;100.00
11440;BME280;5776;51.814;4.510;2023-02-11T06:27:21;103447.75;;;5.81;100.00
11440;BME280;5776;51.814;4.510;2023-02-11T06:29:47;103443.19;;;5.81;100.00
11440;BME280;5776;51.814;4.510;2023-02-11T06:32:14;103453.78;;;5.83;100.00
11440;BME280;5776;51.814;4.510;2023-02-11T06:34:40;103456.47;;;5.83;100.00
11440;BME280;5776;51.814;4.510;2023-02-11T06:37:06;103459.38;;;5.81;100.00
11440;BME280;5776;51.814;4.510;2023-02-11T06:39:32;103467.28;;;5.83;100.00
11440;BME280;5776;51.814;4.510;2023-02-11T06:41:58;103463.53;;;5.84;100.00
11440;BME280;5776;51.814;4.510;2023-02-11T06:44:24;103463.63;;;5.91;100.00
11440;BME280;5776;51.814;4.510;2023-02-11T06:46:50;103468.06;;;5.98;100.00
11440;BME280;5776;51.814;4.510;2023-02-11T06:49:15;103470.19;;;6.03;100.00
11440;BME280;5776;51.814;4.510;2023-02-11T06:51:41;103475.41;;;6.04;100.00
11440;BME280;5776;51.814;4.510;2023-02-11T06:54:07;103477.91;;;6.06;100.00
11440;BME280;5776;51.814;4.510;2023-02-11T06:56:33;103474.38;;;6.05;100.00
11440;BME280;5776;51.814;4.510;2023-02-11T06:58:59;103474.19;;;6.07;100.00
11440;BME280;5776;51.814;4.510;2023-02-11T07:01:26;103463.41;;;6.07;100.00
11440;BME280;5776;51.814;4.510;2023-02-11T07:03:52;103476.69;;;6.09;100.00
11440;BME280;5776;51.814;4.510;2023-02-11T07:06:21;103476.50;;;6.10;100.00
11440;BME280;5776;51.814;4.510;2023-02-11T07:08:47;103478.16;;;6.11;100.00
11440;BME280;5776;51.814;4.510;2023-02-11T07:11:22;103481.69;;;6.12;100.00
11440;BME280;5776;51.814;4.510;2023-02-11T07:13:53;103484.59;;;6.10;100.00
11440;BME280;5776;51.814;4.510;2023-02-11T07:16:19;103472.97;;;6.10;100.00
11440;BME280;5776;51.814;4.510;2023-02-11T07:18:47;103482.91;;;6.09;100.00
11440;BME280;5776;51.814;4.510;2023-02-11T07:21:15;103482.91;;;6.09;100.00
11440;BME280;5776;51.814;4.510;2023-02-11T07:23:40;103486.47;;;6.10;100.00
11440;BME280;5776;51.814;4.510;2023-02-11T07:26:09;103482.06;;;6.09;100.00
11440;BME280;5776;51.814;4.510;2023-02-11T07:28:37;103486.66;;;6.08;100.00
11440;BME280;5776;51.814;4.510;2023-02-11T07:31:08;103486.66;;;6.08;100.00
11440;BME280;5776;51.814;4.510;2023-02-11T07:33:35;103487.69;;;6.07;100.00
11440;BME280;5776;51.814;4.510;2023-02-11T07:36:02;103486.66;;;6.08;100.00
11440;BME280;5776;51.814;4.510;2023-02-11T07:38:30;103488.31;;;6.09;100.00
11440;BME280;5776;51.814;4.510;2023-02-11T07:41:02;103489.34;;;6.08;100.00
11440;BME280;5776;51.814;4.510;2023-02-11T07:43:30;103499.09;;;6.09;100.00
11440;BME280;5776;51.814;4.510;2023-02-11T07:45:56;103492.88;;;6.09;100.00
11440;BME280;5776;51.814;4.510;2023-02-11T07:48:22;103504.50;;;6.09;100.00
11440;BME280;5776;51.814;4.510;2023-02-11T07:50:48;103504.50;;;6.09;100.00
11440;BME280;5776;51.814;4.510;2023-02-11T07:53:14;103505.34;;;6.10;100.00
11440;BME280;5776;51.814;4.510;2023-02-11T07:55:42;103506.81;;;6.12;100.00
11440;BME280;5776;51.814;4.510;2023-02-11T07:58:08;103506.19;;;6.10;100.00
11440;BME280;5776;51.814;4.510;2023-02-11T08:00:34;103515.94;;;6.11;100.00
11440;BME280;5776;51.814;4.510;2023-02-11T08:03:00;103508.03;;;6.10;100.00
11440;BME280;5776;51.814;4.510;2023-02-11T08:05:25;103510.75;;;6.10;100.00
11440;BME280;5776;51.814;4.510;2023-02-11T08:07:53;103510.75;;;6.10;100.00
11440;BME280;5776;51.814;4.510;2023-02-11T08:10:19;103519.84;;;6.09;100.00
11440;BME280;5776;51.814;4.510;2023-02-11T08:12:46;103525.06;;;6.10;100.00
11440;BME280;5776;51.814;4.510;2023-02-11T08:15:12;103525.72;;;6.12;100.00
11440;BME280;5776;51.814;4.510;2023-02-11T08:17:38;103523.00;;;6.12;100.00
11440;BME280;5776;51.814;4.510;2023-02-11T08:20:04;103520.31;;;6.12;100.00
11440;BME280;5776;51.814;4.510;2023-02-11T08:22:32;103519.47;;;6.12;100.00
11440;BME280;5776;51.814;4.510;2023-02-11T08:24:59;103528.66;;;6.17;100.00
11440;BME280;5776;51.814;4.510;2023-02-11T08:27:25;103530.16;;;6.20;100.00
11440;BME280;5776;51.814;4.510;2023-02-11T08:29:55;103531.16;;;6.19;100.00
11440;BME280;5776;51.814;4.510;2023-02-11T08:32:21;103537.38;;;6.19;100.00
11440;BME280;5776;51.814;4.510;2023-02-11T08:34:51;103540.09;;;6.19;100.00
11440;BME280;5776;51.814;4.510;2023-02-11T08:37:17;103538.28;;;6.26;100.00
11440;BME280;5776;51.814;4.510;2023-02-11T08:39:44;103537.28;;;6.27;100.00
11440;BME280;5776;51.814;4.510;2023-02-11T08:42:12;103543.50;;;6.28;100.00
11440;BME280;5776;51.814;4.510;2023-02-11T08:44:40;103551.06;;;6.39;100.00
11440;BME280;5776;51.814;4.510;2023-02-11T08:47:06;103554.16;;;6.36;100.00
11440;BME280;5776;51.814;4.510;2023-02-11T08:49:32;103562.66;;;6.33;100.00
11440;BME280;5776;51.814;4.510;2023-02-11T08:51:59;103557.66;;;6.30;100.00
11440;BME280;5776;51.814;4.510;2023-02-11T08:54:31;103549.56;;;6.30;100.00
11440;BME280;5776;51.814;4.510;2023-02-11T08:56:57;103549.47;;;6.23;100.00
11440;BME280;5776;51.814;4.510;2023-02-11T08:59:23;103546.34;;;6.20;100.00
11440;BME280;5776;51.814;4.510;2023-02-11T09:01:49;103552.81;;;6.25;100.00
11440;BME280;5776;51.814;4.510;2023-02-11T09:04:15;103556.81;;;6.30;100.00
11440;BME280;5776;51.814;4.510;2023-02-11T09:06:41;103555.78;;;6.31;100.00
11440;BME280;5776;51.814;4.510;2023-02-11T09:09:12;103558.88;;;6.27;100.00
11440;BME280;5776;51.814;4.510;2023-02-11T09:11:40;103563.31;;;6.35;100.00
11440;BME280;5776;51.814;4.510;2023-02-11T09:14:06;103566.44;;;6.39;100.00
11440;BME280;5776;51.814;4.510;2023-02-11T09:16:34;103569.78;;;6.41;100.00
11440;BME280;5776;51.814;4.510;2023-02-11T09:19:02;103569.09;;;6.32;100.00
11440;BME280;5776;51.814;4.510;2023-02-11T09:21:29;103565.03;;;6.43;100.00
11440;BME280;5776;51.814;4.510;2023-02-11T09:23:55;103567.25;;;6.39;100.00
11440;BME280;5776;51.814;4.510;2023-02-11T09:26:24;103567.88;;;6.35;100.00
11440;BME280;5776;51.814;4.510;2023-02-11T09:28:51;103568.69;;;6.35;100.00
11440;BME280;5776;51.814;4.510;2023-02-11T09:31:19;103562.13;;;6.44;100.00
11440;BME280;5776;51.814;4.510;2023-02-11T09:33:47;103566.44;;;6.39;100.00
11440;BME280;5776;51.814;4.510;2023-02-11T09:36:18;103566.66;;;6.37;100.00
11440;BME280;5776;51.814;4.510;2023-02-11T09:38:45;103576.59;;;6.37;100.00
11440;BME280;5776;51.814;4.510;2023-02-11T09:43:55;103575.38;;;6.39;100.00
11440;BME280;5776;51.814;4.510;2023-02-11T09:46:23;103578.06;;;6.39;100.00
11440;BME280;5776;51.814;4.510;2023-02-11T09:48:52;103568.75;;;6.42;100.00
11440;BME280;5776;51.814;4.510;2023-02-11T09:54:04;103578.53;;;6.43;100.00
11440;BME280;5776;51.814;4.510;2023-02-11T09:56:32;103582.88;;;6.44;100.00
11440;BME280;5776;51.814;4.510;2023-02-11T09:58:58;103571.91;;;6.45;100.00
11440;BME280;5776;51.814;4.510;2023-02-11T10:04:35;103570.50;;;6.49;100.00
11440;BME280;5776;51.814;4.510;2023-02-11T10:15:54;103583.03;;;6.57;100.00
11440;BME280;5776;51.814;4.510;2023-02-11T10:18:57;103600.06;;;6.58;100.00
11440;BME280;5776;51.814;4.510;2023-02-11T10:24:02;103609.66;;;6.60;100.00
11440;BME280;5776;51.814;4.510;2023-02-11T10:26:31;103611.53;;;6.60;100.00
11440;BME280;5776;51.814;4.510;2023-02-11T10:29:00;103611.94;;;6.63;100.00
11440;BME280;5776;51.814;4.510;2023-02-11T10:31:37;103614.25;;;6.66;100.00
11440;BME280;5776;51.814;4.510;2023-02-11T10:34:06;103606.81;;;6.68;100.00
11440;BME280;5776;51.814;4.510;2023-02-11T10:36:34;103607.25;;;6.72;100.00
11440;BME280;5776;51.814;4.510;2023-02-11T10:39:29;103610.59;;;6.74;100.00
11440;BME280;5776;51.814;4.510;2023-02-11T10:42:04;103613.94;;;6.76;100.00
11440;BME280;5776;51.814;4.510;2023-02-11T10:44:39;103612.72;;;6.79;100.00
11440;BME280;5776;51.814;4.510;2023-02-11T10:47:19;103618.09;;;6.79;100.00
11440;BME280;5776;51.814;4.510;2023-02-11T10:49:46;103617.28;;;6.78;100.00
11440;BME280;5776;51.814;4.510;2023-02-11T10:54:38;103619.25;;;6.91;100.00
11440;BME280;5776;51.814;4.510;2023-02-11T10:57:04;103631.53;;;6.93;100.00
11440;BME280;5776;51.814;4.510;2023-02-11T10:59:33;103637.34;;;6.90;100.00
11440;BME280;5776;51.814;4.510;2023-02-11T11:02:23;103637.59;;;6.96;100.00
11440;BME280;5776;51.814;4.510;2023-02-11T11:04:50;103650.50;;;7.00;100.00
11440;BME280;5776;51.814;4.510;2023-02-11T11:07:23;103644.53;;;7.05;100.00
11440;BME280;5776;51.814;4.510;2023-02-11T11:12:39;103654.03;;;7.01;100.00
11440;BME280;5776;51.814;4.510;2023-02-11T11:17:47;103661.09;;;7.02;100.00
11440;BME280;5776;51.814;4.510;2023-02-11T11:20:26;103657.19;;;7.04;100.00
11440;BME280;5776;51.814;4.510;2023-02-11T11:25:38;103642.44;;;7.07;100.00
11440;BME280;5776;51.814;4.510;2023-02-11T11:28:18;103645.16;;;7.07;100.00
11440;BME280;5776;51.814;4.510;2023-02-11T11:30:44;103644.97;;;7.08;100.00
11440;BME280;5776;51.814;4.510;2023-02-11T11:33:25;103645.59;;;7.10;100.00
11440;BME280;5776;51.814;4.510;2023-02-11T11:36:05;103648.75;;;7.14;100.00
11440;BME280;5776;51.814;4.510;2023-02-11T11:38:35;103643.00;;;7.24;100.00
11440;BME280;5776;51.814;4.510;2023-02-11T11:43:39;103655.88;;;7.22;100.00
11440;BME280;5776;51.814;4.510;2023-02-11T11:46:05;103659.63;;;7.21;100.00
11440;BME280;5776;51.814;4.510;2023-02-11T11:48:37;103663.16;;;7.21;100.00
11440;BME280;5776;51.814;4.510;2023-02-11T11:51:06;103655.03;;;7.21;100.00
11440;BME280;5776;51.814;4.510;2023-02-11T11:56:25;103646.41;;;7.32;100.00
11440;BME280;5776;51.814;4.510;2023-02-11T11:58:52;103644.94;;;7.36;100.00
11440;BME280;5776;51.814;4.510;2023-02-11T12:10:00;103656.22;;;7.40;100.00
11440;BME280;5776;51.814;4.510;2023-02-11T12:37:52;103660.63;;;7.48;100.00
11440;BME280;5776;51.814;4.510;2023-02-11T12:43:13;103653.75;;;7.45;100.00
11440;BME280;5776;51.814;4.510;2023-02-11T12:51:19;103651.88;;;7.46;100.00
11440;BME280;5776;51.814;4.510;2023-02-11T12:58:56;103662.28;;;7.49;100.00
11440;BME280;5776;51.814;4.510;2023-02-11T13:01:29;103654.81;;;7.51;100.00
11440;BME280;5776;51.814;4.510;2023-02-11T13:04:22;103654.47;;;7.61;100.00
11440;BME280;5776;51.814;4.510;2023-02-11T13:07:09;103646.34;;;7.61;100.00
11440;BME280;5776;51.814;4.510;2023-02-11T13:09:59;103641.78;;;7.61;100.00
11440;BME280;5776;51.814;4.510;2023-02-11T13:12:28;103642.59;;;7.62;100.00
11440;BME280;5776;51.814;4.510;2023-02-11T13:15:17;103637.84;;;7.64;100.00
11440;BME280;5776;51.814;4.510;2023-02-11T13:23:25;103641.28;;;7.92;100.00
11440;BME280;5776;51.814;4.510;2023-02-11T13:26:11;103630.50;;;7.99;100.00
11440;BME280;5776;51.814;4.510;2023-02-11T13:28:49;103634.03;;;7.93;100.00
11440;BME280;5776;51.814;4.510;2023-02-11T13:31:17;103637.97;;;7.90;100.00
11440;BME280;5776;51.814;4.510;2023-02-11T13:33:45;103634.41;;;7.90;100.00
11440;BME280;5776;51.814;4.510;2023-02-11T13:36:19;103628.84;;;7.98;100.00
11440;BME280;5776;51.814;4.510;2023-02-11T13:38:57;103622.78;;;7.96;100.00
11440;BME280;5776;51.814;4.510;2023-02-11T13:41:31;103620.09;;;7.96;100.00
11440;BME280;5776;51.814;4.510;2023-02-11T13:43:58;103627.97;;;7.97;100.00
11440;BME280;5776;51.814;4.510;2023-02-11T13:46:26;103632.38;;;7.98;100.00
11440;BME280;5776;51.814;4.510;2023-02-11T13:48:53;103624.44;;;7.97;100.00
11440;BME280;5776;51.814;4.510;2023-02-11T13:51:35;103618.84;;;7.98;100.00
11440;BME280;5776;51.814;4.510;2023-02-11T13:54:03;103618.84;;;7.98;100.00
11440;BME280;5776;51.814;4.510;2023-02-11T13:56:40;103622.81;;;8.03;100.00
11440;BME280;5776;51.814;4.510;2023-02-11T14:02:05;103623.06;;;8.08;100.00
11440;BME280;5776;51.814;4.510;2023-02-11T14:11:04;103628.25;;;8.09;100.00
11440;BME280;5776;51.814;4.510;2023-02-11T14:16:12;103637.81;;;8.12;100.00
11440;BME280;5776;51.814;4.510;2023-02-11T14:21:31;103633.28;;;8.19;100.00
11440;BME280;5776;51.814;4.510;2023-02-11T14:26:46;103628.91;;;8.25;100.00
11440;BME280;5776;51.814;4.510;2023-02-11T14:29:25;103623.50;;;8.25;100.00
11440;BME280;5776;51.814;4.510;2023-02-11T14:42:40;103642.66;;;8.23;100.00
11440;BME280;5776;51.814;4.510;2023-02-11T14:45:13;103638.50;;;8.20;100.00
11440;BME280;5776;51.814;4.510;2023-02-11T14:47:50;103639.75;;;8.18;100.00
11440;BME280;5776;51.814;4.510;2023-02-11T14:50:25;103639.09;;;8.16;100.00
11440;BME280;5776;51.814;4.510;2023-02-11T14:52:53;103639.09;;;8.22;100.00
11440;BME280;5776;51.814;4.510;2023-02-11T14:58:17;103649.78;;;8.31;100.00
11440;BME280;5776;51.814;4.510;2023-02-11T15:00:47;103642.88;;;8.28;100.00
11440;BME280;5776;51.814;4.510;2023-02-11T15:05:55;103647.47;;;8.28;100.00
11440;BME280;5776;51.814;4.510;2023-02-11T15:08:21;103650.38;;;8.26;100.00
11440;BME280;5776;51.814;4.510;2023-02-11T15:10:48;103648.47;;;8.20;100.00
11440;BME280;5776;51.814;4.510;2023-02-11T15:13:18;103647.22;;;8.16;100.00
11440;BME280;5776;51.814;4.510;2023-02-11T15:15:44;103644.72;;;8.14;100.00
11440;BME280;5776;51.814;4.510;2023-02-11T15:18:20;103645.75;;;8.13;100.00
11440;BME280;5776;51.814;4.510;2023-02-11T15:20:49;103655.94;;;8.11;100.00
11440;BME280;5776;51.814;4.510;2023-02-11T15:23:21;103654.06;;;8.12;100.00
11440;BME280;5776;51.814;4.510;2023-02-11T15:25:50;103653.44;;;8.10;100.00
11440;BME280;5776;51.814;4.510;2023-02-11T15:30:56;103648.44;;;8.07;100.00
11440;BME280;5776;51.814;4.510;2023-02-11T15:33:23;103646.81;;;8.19;100.00
11440;BME280;5776;51.814;4.510;2023-02-11T15:35:55;103652.03;;;8.20;100.00
11440;BME280;5776;51.814;4.510;2023-02-11T15:38:22;103655.97;;;8.18;100.00
11440;BME280;5776;51.814;4.510;2023-02-11T15:40:56;103648.88;;;8.17;100.00
11440;BME280;5776;51.814;4.510;2023-02-11T15:43:40;103661.59;;;8.16;100.00
11440;BME280;5776;51.814;4.510;2023-02-11T15:46:07;103657.00;;;8.17;100.00